ANA1182 RJCC-RJNT
Flight info
| Callsign | ANA1182 |
|---|---|
| Flight time | 1h 34m |
| Altitude | 29999 |
| Route | DALBI Y120 TAPPI Y12 GTC DCT HISUI Y311 GENGE |
| Aircraft | A320/L-SDE3FGHIRWY/LB1 |
Departure
| Time | 2026-05-08 12:00 |
|---|---|
| Airport | New Chitose Airport (RJCC) |
Arrival
| Time | 2026-05-08 13:34 |
|---|---|
| Airport | Toyama Kitokito Airport (RJNT) |
| Time | Latitude | Longitude | Altitude | Speed | Heading |
|---|---|---|---|---|---|
| 2026-05-08 11:23 | 42.78905 | 141.68217 | 79 ft | 0 kts | 238° |
| 2026-05-08 11:52 | 42.78916 | 141.68240 | 86 ft | 4 kts | 236° |
| 2026-05-08 11:52 | 42.78925 | 141.68259 | 56 ft | 4 kts | 234° |
| 2026-05-08 11:52 | 42.78942 | 141.68287 | 67 ft | 4 kts | 226° |
| 2026-05-08 11:53 | 42.78962 | 141.68309 | 74 ft | 4 kts | 193° |
| 2026-05-08 11:53 | 42.78976 | 141.68310 | 74 ft | 0 kts | 146° |
| 2026-05-08 11:57 | 42.78961 | 141.68324 | 70 ft | 11 kts | 146° |
| 2026-05-08 11:57 | 42.78901 | 141.68374 | 76 ft | 8 kts | 133° |
| 2026-05-08 11:57 | 42.78897 | 141.68451 | 69 ft | 8 kts | 75° |
| 2026-05-08 11:57 | 42.78913 | 141.68512 | 73 ft | 6 kts | 66° |
| 2026-05-08 11:58 | 42.78927 | 141.68558 | 75 ft | 4 kts | 67° |
| 2026-05-08 11:58 | 42.78945 | 141.68617 | 84 ft | 10 kts | 69° |
| 2026-05-08 11:58 | 42.78918 | 141.68727 | 83 ft | 16 kts | 141° |
| 2026-05-08 11:59 | 42.78698 | 141.68841 | 81 ft | 25 kts | 172° |
| 2026-05-08 11:59 | 42.78285 | 141.68910 | 80 ft | 92 kts | 172° |
| 2026-05-08 11:59 | 42.77462 | 141.69053 | 84 ft | 144 kts | 172° |
| 2026-05-08 11:59 | 42.76376 | 141.69227 | 457 ft | 155 kts | 176° |
| 2026-05-08 12:00 | 42.75342 | 141.69350 | 1266 ft | 148 kts | 171° |
| 2026-05-08 12:00 | 42.74319 | 141.69559 | 1868 ft | 152 kts | 169° |
| 2026-05-08 12:00 | 42.73208 | 141.69802 | 2154 ft | 172 kts | 169° |
| 2026-05-08 12:00 | 42.71950 | 141.70074 | 2385 ft | 194 kts | 170° |
| 2026-05-08 12:01 | 42.70535 | 141.70372 | 2669 ft | 218 kts | 170° |
| 2026-05-08 12:01 | 42.68966 | 141.70694 | 3153 ft | 236 kts | 171° |
| 2026-05-08 12:01 | 42.67320 | 141.71023 | 3923 ft | 242 kts | 172° |
| 2026-05-08 12:01 | 42.65640 | 141.71354 | 4732 ft | 247 kts | 173° |
| 2026-05-08 12:02 | 42.63945 | 141.71687 | 5507 ft | 251 kts | 174° |
| 2026-05-08 12:02 | 42.62202 | 141.72026 | 6278 ft | 256 kts | 174° |
| 2026-05-08 12:02 | 42.60418 | 141.72261 | 7016 ft | 258 kts | 185° |
| 2026-05-08 12:02 | 42.58664 | 141.71788 | 7774 ft | 259 kts | 202° |
| 2026-05-08 12:03 | 42.57105 | 141.70551 | 8560 ft | 262 kts | 220° |
| 2026-05-08 12:03 | 42.55913 | 141.68675 | 9334 ft | 266 kts | 238° |
| 2026-05-08 12:03 | 42.55020 | 141.66466 | 10101 ft | 268 kts | 239° |
| 2026-05-08 12:03 | 42.54117 | 141.64207 | 10420 ft | 288 kts | 239° |
| 2026-05-08 12:04 | 42.53146 | 141.61784 | 10701 ft | 305 kts | 239° |
| 2026-05-08 12:04 | 42.52125 | 141.59231 | 11334 ft | 310 kts | 239° |
| 2026-05-08 12:04 | 42.51092 | 141.56657 | 12093 ft | 311 kts | 239° |
| 2026-05-08 12:04 | 42.50054 | 141.54075 | 12861 ft | 312 kts | 239° |
| 2026-05-08 12:05 | 42.49019 | 141.51496 | 13600 ft | 312 kts | 239° |
| 2026-05-08 12:05 | 42.47978 | 141.48905 | 14265 ft | 313 kts | 239° |
| 2026-05-08 12:05 | 42.46933 | 141.46312 | 14943 ft | 313 kts | 238° |
| 2026-05-08 12:05 | 42.45888 | 141.43725 | 15634 ft | 313 kts | 238° |
| 2026-05-08 12:06 | 42.44842 | 141.41138 | 16310 ft | 314 kts | 238° |
| 2026-05-08 12:06 | 42.43791 | 141.38544 | 16974 ft | 314 kts | 238° |
| 2026-05-08 12:06 | 42.42742 | 141.35948 | 17634 ft | 315 kts | 238° |
| 2026-05-08 12:06 | 42.41691 | 141.33349 | 18246 ft | 315 kts | 237° |
| 2026-05-08 12:07 | 42.40634 | 141.30741 | 18753 ft | 318 kts | 237° |
| 2026-05-08 12:07 | 42.39563 | 141.28108 | 19221 ft | 321 kts | 236° |
| 2026-05-08 12:07 | 42.38481 | 141.25454 | 19689 ft | 324 kts | 236° |
| 2026-05-08 12:07 | 42.37390 | 141.22777 | 20147 ft | 327 kts | 235° |
| 2026-05-08 12:08 | 42.36287 | 141.20073 | 20595 ft | 330 kts | 234° |
| 2026-05-08 12:08 | 42.35174 | 141.17342 | 21030 ft | 333 kts | 234° |
| 2026-05-08 12:08 | 42.34050 | 141.14583 | 21463 ft | 337 kts | 234° |
| 2026-05-08 12:08 | 42.33026 | 141.12070 | 21865 ft | 339 kts | 234° |
| 2026-05-08 12:09 | 42.31863 | 141.09217 | 22311 ft | 342 kts | 233° |
| 2026-05-08 12:09 | 42.30705 | 141.06383 | 22718 ft | 346 kts | 233° |
| 2026-05-08 12:09 | 42.29539 | 141.03535 | 23128 ft | 349 kts | 232° |
| 2026-05-08 12:09 | 42.28358 | 141.00654 | 23501 ft | 351 kts | 233° |
| 2026-05-08 12:10 | 42.27173 | 140.97761 | 23893 ft | 352 kts | 233° |
| 2026-05-08 12:10 | 42.26002 | 140.94899 | 24291 ft | 353 kts | 233° |
| 2026-05-08 12:10 | 42.24813 | 140.91994 | 24695 ft | 354 kts | 233° |
| 2026-05-08 12:10 | 42.23618 | 140.89087 | 25087 ft | 354 kts | 233° |
| 2026-05-08 12:11 | 42.22421 | 140.86181 | 25479 ft | 355 kts | 233° |
| 2026-05-08 12:11 | 42.21221 | 140.83271 | 25857 ft | 356 kts | 233° |
| 2026-05-08 12:11 | 42.20015 | 140.80349 | 26238 ft | 356 kts | 233° |
| 2026-05-08 12:11 | 42.18807 | 140.77428 | 26611 ft | 357 kts | 234° |
| 2026-05-08 12:12 | 42.17595 | 140.74497 | 26976 ft | 358 kts | 234° |
| 2026-05-08 12:12 | 42.16378 | 140.71557 | 27337 ft | 360 kts | 234° |
| 2026-05-08 12:12 | 42.15157 | 140.68609 | 27694 ft | 361 kts | 234° |
| 2026-05-08 12:12 | 42.13930 | 140.65651 | 28037 ft | 362 kts | 234° |
| 2026-05-08 12:13 | 42.12700 | 140.62686 | 28377 ft | 364 kts | 234° |
| 2026-05-08 12:13 | 42.11461 | 140.59707 | 28702 ft | 365 kts | 234° |
| 2026-05-08 12:13 | 42.10209 | 140.56720 | 29015 ft | 366 kts | 233° |
| 2026-05-08 12:13 | 42.08823 | 140.54189 | 29278 ft | 361 kts | 223° |
| 2026-05-08 12:14 | 42.07013 | 140.52029 | 29557 ft | 359 kts | 214° |
| 2026-05-08 12:14 | 42.04841 | 140.50384 | 29649 ft | 355 kts | 204° |
| 2026-05-08 12:14 | 42.02539 | 140.49394 | 29651 ft | 343 kts | 198° |
| 2026-05-08 12:14 | 42.00255 | 140.48560 | 29664 ft | 338 kts | 198° |
| 2026-05-08 12:15 | 41.95738 | 140.46874 | 29662 ft | 336 kts | 199° |
| 2026-05-08 12:15 | 41.91235 | 140.45177 | 29663 ft | 336 kts | 199° |
| 2026-05-08 12:16 | 41.86730 | 140.43491 | 29660 ft | 336 kts | 199° |
| 2026-05-08 12:16 | 41.82220 | 140.41810 | 29651 ft | 336 kts | 199° |
| 2026-05-08 12:17 | 41.77713 | 140.40134 | 29648 ft | 336 kts | 199° |
| 2026-05-08 12:17 | 41.73231 | 140.38469 | 29647 ft | 336 kts | 199° |
| 2026-05-08 12:18 | 41.68719 | 140.36802 | 29642 ft | 336 kts | 199° |
| 2026-05-08 12:18 | 41.64213 | 140.35139 | 29649 ft | 336 kts | 199° |
| 2026-05-08 12:19 | 41.59703 | 140.33472 | 29645 ft | 336 kts | 199° |
| 2026-05-08 12:19 | 41.55196 | 140.31804 | 29640 ft | 336 kts | 199° |
| 2026-05-08 12:20 | 41.50698 | 140.30137 | 29645 ft | 336 kts | 200° |
| 2026-05-08 12:20 | 41.46187 | 140.28481 | 29645 ft | 336 kts | 200° |
| 2026-05-08 12:21 | 41.41682 | 140.26832 | 29647 ft | 336 kts | 200° |
| 2026-05-08 12:21 | 41.37180 | 140.25182 | 29649 ft | 335 kts | 200° |
| 2026-05-08 12:22 | 41.32684 | 140.23532 | 29653 ft | 335 kts | 200° |
| 2026-05-08 12:22 | 41.28186 | 140.21885 | 29650 ft | 335 kts | 200° |
| 2026-05-08 12:23 | 41.23695 | 140.20240 | 29653 ft | 335 kts | 200° |
| 2026-05-08 12:23 | 41.19203 | 140.18593 | 29659 ft | 335 kts | 200° |
| 2026-05-08 12:24 | 41.14703 | 140.16952 | 29664 ft | 335 kts | 200° |
| 2026-05-08 12:24 | 41.10962 | 140.15616 | 29668 ft | 335 kts | 200° |
| 2026-05-08 12:25 | 41.05676 | 140.13799 | 29670 ft | 335 kts | 200° |
| 2026-05-08 12:25 | 41.01923 | 140.12512 | 29670 ft | 335 kts | 200° |
| 2026-05-08 12:26 | 40.97419 | 140.10953 | 29663 ft | 335 kts | 200° |
| 2026-05-08 12:26 | 40.92915 | 140.09395 | 29661 ft | 335 kts | 200° |
| 2026-05-08 12:27 | 40.88404 | 140.07843 | 29662 ft | 334 kts | 200° |
| 2026-05-08 12:27 | 40.83901 | 140.06292 | 29668 ft | 334 kts | 201° |
| 2026-05-08 12:28 | 40.79402 | 140.04745 | 29677 ft | 334 kts | 201° |
| 2026-05-08 12:28 | 40.74895 | 140.03194 | 29682 ft | 334 kts | 201° |
| 2026-05-08 12:29 | 40.70395 | 140.01647 | 29691 ft | 335 kts | 201° |
| 2026-05-08 12:29 | 40.65890 | 140.00107 | 29685 ft | 334 kts | 201° |
| 2026-05-08 12:30 | 40.61388 | 139.98572 | 29693 ft | 334 kts | 201° |
| 2026-05-08 12:30 | 40.56889 | 139.97032 | 29699 ft | 334 kts | 201° |
| 2026-05-08 12:31 | 40.52401 | 139.95504 | 29702 ft | 333 kts | 201° |
| 2026-05-08 12:31 | 40.47939 | 139.93986 | 29704 ft | 333 kts | 201° |
| 2026-05-08 12:32 | 40.43465 | 139.92470 | 29715 ft | 332 kts | 202° |
| 2026-05-08 12:32 | 40.38994 | 139.90958 | 29709 ft | 331 kts | 202° |
| 2026-05-08 12:33 | 40.34533 | 139.89445 | 29711 ft | 331 kts | 202° |
| 2026-05-08 12:33 | 40.30072 | 139.87936 | 29712 ft | 331 kts | 202° |
| 2026-05-08 12:34 | 40.25612 | 139.86430 | 29714 ft | 331 kts | 202° |
| 2026-05-08 12:34 | 40.21148 | 139.84929 | 29719 ft | 331 kts | 202° |
| 2026-05-08 12:35 | 40.16688 | 139.83423 | 29719 ft | 331 kts | 202° |
| 2026-05-08 12:35 | 40.12232 | 139.81920 | 29723 ft | 331 kts | 202° |
| 2026-05-08 12:36 | 40.07776 | 139.80433 | 29724 ft | 330 kts | 202° |
| 2026-05-08 12:36 | 40.03322 | 139.78949 | 29728 ft | 330 kts | 202° |
| 2026-05-08 12:37 | 39.98878 | 139.77453 | 29724 ft | 330 kts | 202° |
| 2026-05-08 12:37 | 39.94437 | 139.75966 | 29719 ft | 329 kts | 202° |
| 2026-05-08 12:38 | 39.90003 | 139.74488 | 29726 ft | 329 kts | 203° |
| 2026-05-08 12:38 | 39.85569 | 139.73001 | 29730 ft | 329 kts | 203° |
| 2026-05-08 12:39 | 39.81132 | 139.71524 | 29726 ft | 329 kts | 203° |
| 2026-05-08 12:39 | 39.76699 | 139.70054 | 29730 ft | 328 kts | 203° |
| 2026-05-08 12:40 | 39.72271 | 139.68580 | 29738 ft | 328 kts | 203° |
| 2026-05-08 12:40 | 39.67858 | 139.67112 | 29741 ft | 327 kts | 203° |
| 2026-05-08 12:41 | 39.63447 | 139.65651 | 29754 ft | 327 kts | 204° |
| 2026-05-08 12:41 | 39.59037 | 139.64191 | 29760 ft | 327 kts | 204° |
| 2026-05-08 12:42 | 39.54629 | 139.62738 | 29763 ft | 327 kts | 204° |
| 2026-05-08 12:42 | 39.50231 | 139.61286 | 29762 ft | 326 kts | 204° |
| 2026-05-08 12:43 | 39.45863 | 139.59848 | 29765 ft | 325 kts | 204° |
| 2026-05-08 12:43 | 39.41478 | 139.58409 | 29757 ft | 325 kts | 204° |
| 2026-05-08 12:44 | 39.37106 | 139.56969 | 29753 ft | 324 kts | 204° |
| 2026-05-08 12:44 | 39.32741 | 139.55536 | 29764 ft | 323 kts | 205° |
| 2026-05-08 12:45 | 39.28393 | 139.54110 | 29769 ft | 322 kts | 205° |
| 2026-05-08 12:45 | 39.24062 | 139.52687 | 29775 ft | 321 kts | 205° |
| 2026-05-08 12:46 | 39.19741 | 139.51272 | 29780 ft | 320 kts | 205° |
| 2026-05-08 12:46 | 39.15430 | 139.49865 | 29781 ft | 319 kts | 205° |
| 2026-05-08 12:47 | 39.11119 | 139.48459 | 29788 ft | 319 kts | 205° |
| 2026-05-08 12:47 | 39.06817 | 139.47061 | 29786 ft | 319 kts | 205° |
| 2026-05-08 12:48 | 39.02524 | 139.45667 | 29790 ft | 318 kts | 205° |
| 2026-05-08 12:48 | 38.98619 | 139.44395 | 29793 ft | 317 kts | 206° |
| 2026-05-08 12:49 | 38.94359 | 139.43007 | 29793 ft | 315 kts | 206° |
| 2026-05-08 12:49 | 38.90110 | 139.41632 | 29797 ft | 314 kts | 206° |
| 2026-05-08 12:50 | 38.85882 | 139.40264 | 29790 ft | 313 kts | 206° |
| 2026-05-08 12:50 | 38.81661 | 139.38899 | 29788 ft | 312 kts | 206° |
| 2026-05-08 12:51 | 38.75375 | 139.36865 | 29783 ft | 312 kts | 206° |
| 2026-05-08 12:52 | 38.71168 | 139.35508 | 29789 ft | 311 kts | 206° |
| 2026-05-08 12:52 | 38.64870 | 139.33487 | 29805 ft | 311 kts | 206° |
| 2026-05-08 12:53 | 38.60676 | 139.32140 | 29797 ft | 311 kts | 206° |
| 2026-05-08 12:53 | 38.56488 | 139.30791 | 29796 ft | 311 kts | 207° |
| 2026-05-08 12:54 | 38.52295 | 139.29441 | 29789 ft | 311 kts | 207° |
| 2026-05-08 12:54 | 38.48095 | 139.28094 | 29789 ft | 311 kts | 207° |
| 2026-05-08 12:55 | 38.43894 | 139.26752 | 29792 ft | 311 kts | 207° |
| 2026-05-08 12:55 | 38.39706 | 139.25416 | 29787 ft | 312 kts | 207° |
| 2026-05-08 12:56 | 38.35492 | 139.24076 | 29784 ft | 312 kts | 207° |
| 2026-05-08 12:56 | 38.31279 | 139.22727 | 29788 ft | 313 kts | 207° |
| 2026-05-08 12:57 | 38.27077 | 139.21386 | 29797 ft | 314 kts | 207° |
| 2026-05-08 12:57 | 38.22835 | 139.20036 | 29802 ft | 314 kts | 207° |
| 2026-05-08 12:58 | 38.19384 | 139.18954 | 29807 ft | 315 kts | 207° |
| 2026-05-08 12:58 | 38.15125 | 139.17605 | 29809 ft | 316 kts | 207° |
| 2026-05-08 12:59 | 38.10862 | 139.16249 | 29816 ft | 316 kts | 207° |
| 2026-05-08 12:59 | 38.06593 | 139.14891 | 29825 ft | 317 kts | 207° |
| 2026-05-08 13:00 | 38.02316 | 139.13540 | 29824 ft | 317 kts | 206° |
| 2026-05-08 13:00 | 37.98161 | 139.11906 | 29823 ft | 303 kts | 218° |
| 2026-05-08 13:01 | 37.96471 | 139.10402 | 29827 ft | 293 kts | 228° |
| 2026-05-08 13:01 | 37.95149 | 139.08488 | 29612 ft | 284 kts | 237° |
| 2026-05-08 13:01 | 37.94253 | 139.06314 | 29341 ft | 275 kts | 246° |
| 2026-05-08 13:01 | 37.93582 | 139.04068 | 29070 ft | 270 kts | 246° |
| 2026-05-08 13:02 | 37.92918 | 139.01860 | 28797 ft | 267 kts | 246° |
| 2026-05-08 13:02 | 37.92258 | 138.99674 | 28532 ft | 265 kts | 246° |
| 2026-05-08 13:02 | 37.91600 | 138.97504 | 28268 ft | 263 kts | 246° |
| 2026-05-08 13:02 | 37.90941 | 138.95339 | 28017 ft | 262 kts | 246° |
| 2026-05-08 13:03 | 37.90287 | 138.93189 | 27758 ft | 261 kts | 246° |
| 2026-05-08 13:03 | 37.89633 | 138.91049 | 27504 ft | 260 kts | 246° |
| 2026-05-08 13:03 | 37.88981 | 138.88919 | 27251 ft | 259 kts | 246° |
| 2026-05-08 13:03 | 37.88330 | 138.86796 | 27001 ft | 258 kts | 246° |
| 2026-05-08 13:04 | 37.87680 | 138.84678 | 26750 ft | 257 kts | 247° |
| 2026-05-08 13:04 | 37.87036 | 138.82574 | 26499 ft | 256 kts | 247° |
| 2026-05-08 13:04 | 37.86392 | 138.80469 | 26256 ft | 255 kts | 247° |
| 2026-05-08 13:04 | 37.85752 | 138.78372 | 26008 ft | 255 kts | 247° |
| 2026-05-08 13:05 | 37.85188 | 138.76522 | 25799 ft | 254 kts | 247° |
| 2026-05-08 13:05 | 37.84552 | 138.74437 | 25567 ft | 253 kts | 247° |
| 2026-05-08 13:05 | 37.83921 | 138.72370 | 25324 ft | 252 kts | 247° |
| 2026-05-08 13:05 | 37.83288 | 138.70305 | 25090 ft | 251 kts | 247° |
| 2026-05-08 13:06 | 37.82658 | 138.68248 | 24857 ft | 250 kts | 248° |
| 2026-05-08 13:06 | 37.82038 | 138.66225 | 24629 ft | 250 kts | 248° |
| 2026-05-08 13:06 | 37.81412 | 138.64185 | 24401 ft | 249 kts | 248° |
| 2026-05-08 13:06 | 37.80786 | 138.62147 | 24173 ft | 248 kts | 248° |
| 2026-05-08 13:07 | 37.80159 | 138.60120 | 23953 ft | 247 kts | 248° |
| 2026-05-08 13:07 | 37.79535 | 138.58100 | 23732 ft | 246 kts | 248° |
| 2026-05-08 13:07 | 37.78915 | 138.56087 | 23514 ft | 246 kts | 248° |
| 2026-05-08 13:07 | 37.78293 | 138.54079 | 23260 ft | 245 kts | 248° |
| 2026-05-08 13:08 | 37.77672 | 138.52075 | 22990 ft | 245 kts | 248° |
| 2026-05-08 13:08 | 37.77051 | 138.50069 | 22725 ft | 245 kts | 247° |
| 2026-05-08 13:08 | 37.76431 | 138.48062 | 22458 ft | 246 kts | 247° |
| 2026-05-08 13:08 | 37.75810 | 138.46050 | 22199 ft | 246 kts | 247° |
| 2026-05-08 13:09 | 37.75186 | 138.44029 | 21940 ft | 246 kts | 247° |
| 2026-05-08 13:09 | 37.74563 | 138.42014 | 21678 ft | 247 kts | 247° |
| 2026-05-08 13:09 | 37.73934 | 138.39990 | 21426 ft | 248 kts | 246° |
| 2026-05-08 13:09 | 37.73303 | 138.37963 | 21180 ft | 248 kts | 246° |
| 2026-05-08 13:10 | 37.72673 | 138.35933 | 20925 ft | 249 kts | 246° |
| 2026-05-08 13:10 | 37.72040 | 138.33896 | 20675 ft | 249 kts | 246° |
| 2026-05-08 13:10 | 37.71405 | 138.31853 | 20430 ft | 250 kts | 246° |
| 2026-05-08 13:10 | 37.70766 | 138.29803 | 20182 ft | 251 kts | 246° |
| 2026-05-08 13:11 | 37.70128 | 138.27754 | 19940 ft | 252 kts | 246° |
| 2026-05-08 13:11 | 37.69487 | 138.25696 | 19698 ft | 252 kts | 246° |
| 2026-05-08 13:11 | 37.68844 | 138.23631 | 19458 ft | 253 kts | 246° |
| 2026-05-08 13:11 | 37.68198 | 138.21557 | 19222 ft | 254 kts | 246° |
| 2026-05-08 13:12 | 37.67550 | 138.19480 | 18986 ft | 255 kts | 246° |
| 2026-05-08 13:12 | 37.66899 | 138.17398 | 18756 ft | 255 kts | 246° |
| 2026-05-08 13:12 | 37.66256 | 138.15338 | 18528 ft | 256 kts | 246° |
| 2026-05-08 13:12 | 37.65600 | 138.13247 | 18292 ft | 257 kts | 246° |
| 2026-05-08 13:13 | 37.64940 | 138.11145 | 18048 ft | 258 kts | 246° |
| 2026-05-08 13:13 | 37.64282 | 138.09044 | 17789 ft | 257 kts | 246° |
| 2026-05-08 13:13 | 37.63627 | 138.06947 | 17519 ft | 257 kts | 246° |
| 2026-05-08 13:13 | 37.62970 | 138.04848 | 17249 ft | 256 kts | 246° |
| 2026-05-08 13:14 | 37.62528 | 138.03437 | 17076 ft | 256 kts | 246° |
| 2026-05-08 13:14 | 37.61660 | 138.00683 | 16731 ft | 255 kts | 246° |
| 2026-05-08 13:14 | 37.61216 | 137.99276 | 16547 ft | 255 kts | 246° |
| 2026-05-08 13:14 | 37.60563 | 137.97203 | 16297 ft | 254 kts | 246° |
| 2026-05-08 13:15 | 37.59912 | 137.95139 | 16039 ft | 253 kts | 246° |
| 2026-05-08 13:15 | 37.59052 | 137.92410 | 15709 ft | 253 kts | 246° |
| 2026-05-08 13:15 | 37.58628 | 137.91046 | 15541 ft | 252 kts | 246° |
| 2026-05-08 13:15 | 37.57994 | 137.88983 | 15299 ft | 252 kts | 247° |
| 2026-05-08 13:16 | 37.57365 | 137.86925 | 15047 ft | 251 kts | 247° |
| 2026-05-08 13:16 | 37.56738 | 137.84872 | 14799 ft | 251 kts | 247° |
| 2026-05-08 13:16 | 37.56108 | 137.82822 | 14560 ft | 251 kts | 247° |
| 2026-05-08 13:16 | 37.55481 | 137.80776 | 14320 ft | 250 kts | 247° |
| 2026-05-08 13:17 | 37.54841 | 137.78732 | 14080 ft | 250 kts | 244° |
| 2026-05-08 13:17 | 37.53982 | 137.76841 | 13841 ft | 250 kts | 235° |
| 2026-05-08 13:17 | 37.52829 | 137.75201 | 13596 ft | 251 kts | 225° |
| 2026-05-08 13:17 | 37.51492 | 137.73774 | 13324 ft | 252 kts | 224° |
| 2026-05-08 13:18 | 37.50154 | 137.72348 | 13055 ft | 252 kts | 224° |
| 2026-05-08 13:18 | 37.48822 | 137.70924 | 12789 ft | 251 kts | 224° |
| 2026-05-08 13:18 | 37.47490 | 137.69500 | 12523 ft | 251 kts | 224° |
| 2026-05-08 13:18 | 37.46160 | 137.68079 | 12262 ft | 251 kts | 224° |
| 2026-05-08 13:19 | 37.44828 | 137.66657 | 12001 ft | 251 kts | 224° |
| 2026-05-08 13:19 | 37.43500 | 137.65241 | 11747 ft | 251 kts | 224° |
| 2026-05-08 13:19 | 37.42169 | 137.63821 | 11489 ft | 251 kts | 224° |
| 2026-05-08 13:19 | 37.40838 | 137.62402 | 11231 ft | 250 kts | 224° |
| 2026-05-08 13:20 | 37.39509 | 137.60989 | 10982 ft | 250 kts | 224° |
| 2026-05-08 13:20 | 37.38180 | 137.59578 | 10731 ft | 250 kts | 224° |
| 2026-05-08 13:20 | 37.36849 | 137.58166 | 10482 ft | 250 kts | 224° |
| 2026-05-08 13:20 | 37.35516 | 137.56751 | 10238 ft | 250 kts | 225° |
| 2026-05-08 13:21 | 37.34188 | 137.55337 | 10000 ft | 250 kts | 225° |
| 2026-05-08 13:21 | 37.32862 | 137.53921 | 9829 ft | 250 kts | 225° |
| 2026-05-08 13:21 | 37.31534 | 137.52505 | 9698 ft | 251 kts | 225° |
| 2026-05-08 13:21 | 37.30203 | 137.51089 | 9568 ft | 251 kts | 225° |
| 2026-05-08 13:22 | 37.28873 | 137.49674 | 9433 ft | 250 kts | 225° |
| 2026-05-08 13:22 | 37.27546 | 137.48266 | 9296 ft | 250 kts | 225° |
| 2026-05-08 13:22 | 37.26219 | 137.46859 | 9160 ft | 250 kts | 224° |
| 2026-05-08 13:22 | 37.24893 | 137.45454 | 9032 ft | 249 kts | 224° |
| 2026-05-08 13:23 | 37.23569 | 137.44051 | 8897 ft | 249 kts | 224° |
| 2026-05-08 13:23 | 37.22246 | 137.42651 | 8750 ft | 249 kts | 224° |
| 2026-05-08 13:23 | 37.20921 | 137.41250 | 8632 ft | 249 kts | 224° |
| 2026-05-08 13:23 | 37.19599 | 137.39852 | 8502 ft | 249 kts | 224° |
| 2026-05-08 13:24 | 37.18287 | 137.38466 | 8367 ft | 242 kts | 224° |
| 2026-05-08 13:24 | 37.17026 | 137.37143 | 8229 ft | 231 kts | 224° |
| 2026-05-08 13:24 | 37.15821 | 137.35878 | 8105 ft | 221 kts | 225° |
| 2026-05-08 13:24 | 37.14664 | 137.34667 | 7974 ft | 214 kts | 222° |
| 2026-05-08 13:25 | 37.13376 | 137.33719 | 7843 ft | 218 kts | 209° |
| 2026-05-08 13:25 | 37.11905 | 137.33170 | 7712 ft | 222 kts | 201° |
| 2026-05-08 13:25 | 37.10403 | 137.32715 | 7588 ft | 222 kts | 201° |
| 2026-05-08 13:25 | 37.08904 | 137.32260 | 7464 ft | 221 kts | 201° |
| 2026-05-08 13:26 | 37.07406 | 137.31806 | 7335 ft | 221 kts | 201° |
| 2026-05-08 13:26 | 37.05910 | 137.31355 | 7210 ft | 221 kts | 201° |
| 2026-05-08 13:26 | 37.04433 | 137.30910 | 7087 ft | 221 kts | 201° |
| 2026-05-08 13:26 | 37.02918 | 137.30453 | 6956 ft | 221 kts | 201° |
| 2026-05-08 13:27 | 37.01442 | 137.30008 | 6833 ft | 221 kts | 201° |
| 2026-05-08 13:27 | 36.99950 | 137.29559 | 6713 ft | 221 kts | 201° |
| 2026-05-08 13:27 | 36.98459 | 137.29109 | 6589 ft | 220 kts | 201° |
| 2026-05-08 13:27 | 36.96969 | 137.28660 | 6471 ft | 220 kts | 200° |
| 2026-05-08 13:28 | 36.95480 | 137.28212 | 6349 ft | 220 kts | 200° |
| 2026-05-08 13:28 | 36.93987 | 137.27762 | 6227 ft | 220 kts | 200° |
| 2026-05-08 13:28 | 36.92498 | 137.27314 | 6096 ft | 220 kts | 200° |
| 2026-05-08 13:28 | 36.91013 | 137.26867 | 5966 ft | 219 kts | 200° |
| 2026-05-08 13:29 | 36.89534 | 137.26423 | 5829 ft | 219 kts | 200° |
| 2026-05-08 13:29 | 36.88050 | 137.25977 | 5706 ft | 219 kts | 200° |
| 2026-05-08 13:29 | 36.86570 | 137.25532 | 5438 ft | 219 kts | 200° |
| 2026-05-08 13:29 | 36.85088 | 137.25086 | 5083 ft | 219 kts | 200° |
| 2026-05-08 13:30 | 36.83605 | 137.24640 | 4718 ft | 219 kts | 200° |
| 2026-05-08 13:30 | 36.82118 | 137.24179 | 4342 ft | 220 kts | 200° |
| 2026-05-08 13:30 | 36.80637 | 137.23703 | 3964 ft | 220 kts | 200° |
| 2026-05-08 13:30 | 36.79141 | 137.23218 | 3586 ft | 223 kts | 200° |
| 2026-05-08 13:31 | 36.77633 | 137.22730 | 3249 ft | 224 kts | 199° |
| 2026-05-08 13:31 | 36.76135 | 137.22248 | 3033 ft | 219 kts | 199° |
| 2026-05-08 13:31 | 36.74667 | 137.21778 | 2769 ft | 217 kts | 199° |
| 2026-05-08 13:31 | 36.73244 | 137.21324 | 2464 ft | 200 kts | 199° |
| 2026-05-08 13:32 | 36.72005 | 137.20937 | 2152 ft | 169 kts | 198° |
| 2026-05-08 13:32 | 36.70927 | 137.20597 | 1803 ft | 153 kts | 198° |
| 2026-05-08 13:32 | 36.69934 | 137.20278 | 1467 ft | 143 kts | 198° |
| 2026-05-08 13:32 | 36.68989 | 137.19973 | 1117 ft | 138 kts | 196° |
| 2026-05-08 13:33 | 36.68059 | 137.19693 | 785 ft | 136 kts | 194° |
| 2026-05-08 13:33 | 36.67145 | 137.19396 | 513 ft | 136 kts | 195° |
| 2026-05-08 13:33 | 36.66234 | 137.19149 | 259 ft | 135 kts | 193° |
| 2026-05-08 13:33 | 36.65348 | 137.18889 | 81 ft | 123 kts | 196° |
| 2026-05-08 13:34 | 36.64849 | 137.18737 | 69 ft | 18 kts | 189° |
| 2026-05-08 13:34 | 36.64692 | 137.18698 | 67 ft | 27 kts | 194° |
| 2026-05-08 13:34 | 36.64551 | 137.18654 | 69 ft | 23 kts | 193° |
| 2026-05-08 13:34 | 36.64453 | 137.18627 | 74 ft | 12 kts | 187° |
| 2026-05-08 13:35 | 36.64397 | 137.18722 | 67 ft | 13 kts | 133° |
| 2026-05-08 13:35 | 36.64353 | 137.18747 | 64 ft | 4 kts | 154° |
| 2026-05-08 13:35 | 36.64333 | 137.18767 | 67 ft | 3 kts | 133° |
| 2026-05-08 13:35 | 36.64321 | 137.18783 | 66 ft | 2 kts | 131° |
| 2026-05-08 13:36 | 36.64314 | 137.18793 | 72 ft | 1 kts | 128° |
| 2026-05-08 13:36 | 36.64307 | 137.18806 | 68 ft | 2 kts | 128° |
| 2026-05-08 13:36 | 36.64301 | 137.18815 | 67 ft | 0 kts | 128° |